createdAt,value
2023-02-27T00:00:15.083Z,2.38
2023-02-27T00:02:46.982Z,2.05
2023-02-27T00:05:14.759Z,2.38
2023-02-27T00:07:41.718Z,2.10
2023-02-27T00:10:11.304Z,2.60
2023-02-27T00:12:39.074Z,1.75
2023-02-27T00:15:11.852Z,2.20
2023-02-27T00:17:38.989Z,2.33
2023-02-27T00:20:07.877Z,1.95
2023-02-27T00:22:34.796Z,2.67
2023-02-27T00:25:01.589Z,2.35
2023-02-27T00:27:32.620Z,2.42
2023-02-27T00:29:59.780Z,2.28
2023-02-27T00:32:26.611Z,2.45
2023-02-27T00:34:53.484Z,2.13
2023-02-27T00:37:20.235Z,2.40
2023-02-27T00:39:46.984Z,2.58
2023-02-27T00:42:13.853Z,1.95
2023-02-27T00:44:41.257Z,2.40
2023-02-27T00:47:08.269Z,2.38
2023-02-27T00:49:35.033Z,2.53
2023-02-27T00:52:01.826Z,2.47
2023-02-27T00:54:28.596Z,2.33
2023-02-27T00:56:55.341Z,1.83
2023-02-27T00:59:22.109Z,2.67
2023-02-27T01:01:48.892Z,2.70
2023-02-27T01:04:16.008Z,2.10
2023-02-27T01:06:42.760Z,3.25
2023-02-27T01:09:09.513Z,2.60
2023-02-27T01:11:36.377Z,2.33
2023-02-27T01:14:03.169Z,2.35
2023-02-27T01:16:30.207Z,2.83
2023-02-27T01:18:57.079Z,2.05
2023-02-27T01:21:24.697Z,2.35
2023-02-27T01:23:51.811Z,2.22
2023-02-27T01:26:18.674Z,2.72
2023-02-27T01:28:45.503Z,2.33
2023-02-27T01:31:12.345Z,3.13
2023-02-27T01:33:39.198Z,2.70
2023-02-27T01:36:06.343Z,2.60
2023-02-27T01:38:33.195Z,2.20
2023-02-27T01:41:00.766Z,2.72
2023-02-27T01:43:28.107Z,2.85
2023-02-27T01:45:55.623Z,2.30
2023-02-27T01:48:31.340Z,2.85
2023-02-27T01:51:04.203Z,2.42
2023-02-27T01:53:34.385Z,3.20
2023-02-27T01:56:07.508Z,2.00
2023-02-27T01:58:34.557Z,2.58
2023-02-27T02:01:01.524Z,2.28
2023-02-27T02:03:46.862Z,2.95
2023-02-27T02:06:13.694Z,2.90
2023-02-27T02:08:44.971Z,2.33
2023-02-27T02:11:13.681Z,2.13
2023-02-27T02:13:41.819Z,2.47
2023-02-27T02:16:30.292Z,2.33
2023-02-27T02:19:06.925Z,3.05
2023-02-27T02:21:42.610Z,1.80
2023-02-27T02:24:31.032Z,2.90
2023-02-27T02:27:33.128Z,1.92
2023-02-27T02:30:36.768Z,2.55
2023-02-27T02:33:26.988Z,2.95
2023-02-27T02:35:56.694Z,2.50
2023-02-27T02:38:50.883Z,2.97
2023-02-27T02:42:05.569Z,2.08
2023-02-27T02:44:48.544Z,3.10
2023-02-27T02:47:35.727Z,2.60
2023-02-27T02:50:28.924Z,2.60
2023-02-27T02:53:20.576Z,2.20
2023-02-27T02:55:52.235Z,2.27
2023-02-27T02:58:18.979Z,2.85
2023-02-27T03:01:03.861Z,2.50
2023-02-27T03:03:43.422Z,2.55
2023-02-27T03:06:18.210Z,1.77
2023-02-27T03:08:59.779Z,1.85
2023-02-27T03:11:31.666Z,1.97
2023-02-27T03:14:09.439Z,2.50
2023-02-27T03:16:43.964Z,2.28
2023-02-27T03:19:22.190Z,2.92
2023-02-27T03:21:57.574Z,2.20
2023-02-27T03:24:48.434Z,2.53
2023-02-27T03:27:18.122Z,1.95
2023-02-27T03:30:22.415Z,1.90
2023-02-27T03:32:58.018Z,1.80
2023-02-27T03:35:41.733Z,2.33
2023-02-27T03:38:33.468Z,2.40
2023-02-27T03:41:18.690Z,3.28
2023-02-27T03:44:03.349Z,1.92
2023-02-27T03:46:34.776Z,2.08
2023-02-27T03:49:07.818Z,2.33
2023-02-27T03:51:35.813Z,2.38
2023-02-27T03:54:20.814Z,2.03
2023-02-27T03:56:51.883Z,2.53
2023-02-27T03:59:18.962Z,2.50
2023-02-27T04:01:46.021Z,2.30
2023-02-27T04:04:17.971Z,2.20
2023-02-27T04:07:21.869Z,2.83
2023-02-27T04:10:07.687Z,1.92
2023-02-27T04:12:37.293Z,2.30
2023-02-27T04:15:26.962Z,2.75
2023-02-27T04:18:04.222Z,2.80
2023-02-27T04:20:34.048Z,2.08
2023-02-27T04:23:07.580Z,2.08
2023-02-27T04:25:47.790Z,2.67
2023-02-27T04:28:18.276Z,2.67
2023-02-27T04:30:53.856Z,1.95
2023-02-27T04:33:26.464Z,3.10
2023-02-27T04:36:07.125Z,2.38
2023-02-27T04:38:55.241Z,3.10
2023-02-27T04:41:43.467Z,2.30
2023-02-27T04:44:12.566Z,2.47
2023-02-27T04:46:43.530Z,2.42
2023-02-27T04:49:55.078Z,2.88
2023-02-27T04:52:28.828Z,2.75
2023-02-27T04:54:58.764Z,3.17
2023-02-27T04:58:02.522Z,2.88
2023-02-27T05:00:32.755Z,2.35
2023-02-27T05:03:27.962Z,2.92
2023-02-27T05:05:59.346Z,3.90
2023-02-27T05:08:37.106Z,3.60
2023-02-27T05:11:32.968Z,2.28
2023-02-27T05:14:07.248Z,2.72
2023-02-27T05:16:42.598Z,2.22
2023-02-27T05:19:10.079Z,2.20
2023-02-27T05:21:56.497Z,2.40
2023-02-27T05:24:39.092Z,2.58
2023-02-27T05:27:36.666Z,2.22
2023-02-27T05:30:12.830Z,2.88
2023-02-27T05:32:50.928Z,2.53
2023-02-27T05:35:28.995Z,2.83
2023-02-27T05:38:02.245Z,2.58
2023-02-27T05:40:35.539Z,2.72
2023-02-27T05:43:10.809Z,2.50
2023-02-27T05:45:40.191Z,3.00
2023-02-27T05:48:17.280Z,2.50
2023-02-27T05:50:48.292Z,2.65
2023-02-27T05:53:19.054Z,2.72
2023-02-27T05:55:50.006Z,2.92
2023-02-27T05:58:23.837Z,2.83
2023-02-27T06:01:01.222Z,2.58
2023-02-27T06:03:30.056Z,2.95
2023-02-27T06:05:59.343Z,3.30
2023-02-27T06:08:26.903Z,2.78
2023-02-27T06:10:55.359Z,3.17
2023-02-27T06:13:23.844Z,2.80
2023-02-27T06:15:50.929Z,3.03
2023-02-27T06:18:18.496Z,2.80
2023-02-27T06:20:45.660Z,2.85
2023-02-27T06:23:13.378Z,3.17
2023-02-27T06:25:42.216Z,2.47
2023-02-27T06:28:09.417Z,3.17
2023-02-27T06:30:36.505Z,2.30
2023-02-27T06:33:03.656Z,2.63
2023-02-27T06:35:30.700Z,3.00
2023-02-27T06:37:58.435Z,2.65
2023-02-27T06:40:25.600Z,3.47
2023-02-27T06:42:52.311Z,2.10
2023-02-27T06:45:19.195Z,2.83
2023-02-27T06:47:46.084Z,3.10
2023-02-27T06:50:14.503Z,3.05
2023-02-27T06:52:41.464Z,2.63
2023-02-27T06:55:09.190Z,2.70
2023-02-27T06:57:36.298Z,2.78
2023-02-27T07:00:07.003Z,2.90
2023-02-27T07:02:33.804Z,3.47
2023-02-27T07:05:00.729Z,3.10
2023-02-27T07:07:37.806Z,2.92
2023-02-27T07:10:07.493Z,3.17
2023-02-27T07:12:34.277Z,3.30
2023-02-27T07:15:01.240Z,3.08
2023-02-27T07:17:27.978Z,3.30
2023-02-27T07:19:54.720Z,3.22
2023-02-27T07:22:21.466Z,3.40
2023-02-27T07:24:48.268Z,3.25
2023-02-27T07:27:15.047Z,3.38
2023-02-27T07:29:42.253Z,3.22
2023-02-27T07:32:09.166Z,3.90
2023-02-27T07:34:35.961Z,3.25
2023-02-27T07:37:02.765Z,3.20
2023-02-27T07:39:29.647Z,3.58
2023-02-27T07:41:56.413Z,3.38
2023-02-27T07:44:23.225Z,3.50
2023-02-27T07:46:50.078Z,3.30
2023-02-27T07:49:16.857Z,3.60
2023-02-27T07:51:43.927Z,2.83
2023-02-27T07:54:10.722Z,4.00
2023-02-27T07:56:37.578Z,3.95
2023-02-27T07:59:04.333Z,4.88
2023-02-27T08:01:31.150Z,3.65
2023-02-27T08:03:57.935Z,3.83
2023-02-27T08:06:24.755Z,3.40
2023-02-27T08:08:52.120Z,3.80
2023-02-27T08:11:19.109Z,3.38
2023-02-27T08:14:05.462Z,3.30
2023-02-27T08:16:32.881Z,3.28
2023-02-27T08:19:01.105Z,3.03
2023-02-27T08:21:28.718Z,2.95
2023-02-27T08:23:55.837Z,4.93
2023-02-27T08:26:23.080Z,3.55
2023-02-27T08:28:49.884Z,3.05
2023-02-27T08:31:16.757Z,3.13
2023-02-27T08:33:43.573Z,3.33
2023-02-27T08:36:10.424Z,3.22
2023-02-27T08:38:37.202Z,2.70
2023-02-27T08:41:04.466Z,3.08
2023-02-27T08:43:31.242Z,2.97
2023-02-27T08:45:58.156Z,2.75
2023-02-27T08:48:25.030Z,2.70
2023-02-27T08:50:52.453Z,2.75
2023-02-27T08:53:19.819Z,3.88
2023-02-27T08:55:51.184Z,3.47
2023-02-27T08:58:18.635Z,3.03
2023-02-27T09:00:46.523Z,3.50
2023-02-27T09:03:13.643Z,3.33
2023-02-27T09:05:41.986Z,3.10
2023-02-27T09:08:09.229Z,3.15
2023-02-27T09:10:36.082Z,3.00
2023-02-27T09:13:05.373Z,3.00
2023-02-27T09:15:34.470Z,2.40
2023-02-27T09:18:03.270Z,3.15
2023-02-27T09:20:31.760Z,3.03
2023-02-27T09:22:59.668Z,2.38
2023-02-27T09:25:27.301Z,2.78
2023-02-27T09:27:54.310Z,2.38
2023-02-27T09:30:21.137Z,2.90
2023-02-27T09:32:48.173Z,2.60
2023-02-27T09:35:20.310Z,3.00
2023-02-27T09:37:48.307Z,2.75
2023-02-27T09:40:25.411Z,2.83
2023-02-27T09:42:54.103Z,3.25
2023-02-27T09:45:30.265Z,3.58
2023-02-27T09:48:03.845Z,2.90
2023-02-27T09:50:43.654Z,2.65
2023-02-27T09:53:26.976Z,2.53
2023-02-27T09:55:57.737Z,3.28
2023-02-27T09:58:43.243Z,3.40
2023-02-27T10:01:14.488Z,2.58
2023-02-27T10:04:12.265Z,2.63
2023-02-27T10:06:48.566Z,2.63
2023-02-27T10:09:54.263Z,3.53
2023-02-27T10:12:26.838Z,2.70
2023-02-27T10:15:12.369Z,2.25
2023-02-27T10:18:07.555Z,3.28
2023-02-27T10:20:58.596Z,2.13
2023-02-27T10:23:42.938Z,2.38
2023-02-27T10:26:21.219Z,2.40
2023-02-27T10:28:48.070Z,2.75
2023-02-27T10:31:26.147Z,2.42
2023-02-27T10:33:54.071Z,2.22
2023-02-27T10:36:33.034Z,2.63
2023-02-27T10:39:06.009Z,2.58
2023-02-27T10:44:00.806Z,2.58
2023-02-27T10:46:31.387Z,2.78
2023-02-27T10:49:00.373Z,2.65
2023-02-27T10:51:35.053Z,2.22
2023-02-27T10:54:34.594Z,2.58
2023-02-27T10:57:03.206Z,3.38
2023-02-27T10:59:35.451Z,2.67
2023-02-27T11:04:39.935Z,2.20
2023-02-27T11:07:11.601Z,2.47
2023-02-27T11:09:38.942Z,2.33
2023-02-27T11:12:13.277Z,2.17
2023-02-27T11:14:51.713Z,2.33
2023-02-27T11:17:32.855Z,2.95
2023-02-27T11:20:01.824Z,2.38
2023-02-27T11:22:32.540Z,2.38
2023-02-27T11:25:20.995Z,2.85
2023-02-27T11:27:49.313Z,2.35
2023-02-27T11:30:27.316Z,2.22
2023-02-27T11:32:56.607Z,2.25
2023-02-27T11:35:33.817Z,2.38
2023-02-27T11:38:18.176Z,2.33
2023-02-27T11:40:55.191Z,2.60
2023-02-27T11:43:23.883Z,2.10
2023-02-27T11:46:04.685Z,1.50
2023-02-27T11:48:50.457Z,2.08
2023-02-27T11:54:06.559Z,1.52
2023-02-27T11:56:58.057Z,2.08
2023-02-27T12:00:01.063Z,1.63
2023-02-27T12:02:39.288Z,2.40
2023-02-27T12:05:19.258Z,2.20
2023-02-27T12:07:54.159Z,2.13
2023-02-27T12:10:25.794Z,2.42
2023-02-27T12:13:05.158Z,2.67
2023-02-27T12:15:51.236Z,1.42
2023-02-27T12:18:30.232Z,1.90
2023-02-27T12:21:05.931Z,1.70
2023-02-27T12:24:04.294Z,2.10
2023-02-27T12:26:43.317Z,2.05
2023-02-27T12:29:15.923Z,2.15
2023-02-27T12:31:58.623Z,1.70
2023-02-27T12:34:29.456Z,2.03
2023-02-27T12:37:29.501Z,2.33
2023-02-27T12:39:59.839Z,2.63
2023-02-27T12:42:29.449Z,1.92
2023-02-27T12:45:17.772Z,2.22
2023-02-27T12:48:23.279Z,1.95
2023-02-27T12:51:11.143Z,1.90
2023-02-27T12:53:48.260Z,1.83
2023-02-27T12:56:44.279Z,1.80
2023-02-27T12:59:30.619Z,1.92
2023-02-27T13:02:21.946Z,1.65
2023-02-27T13:05:09.484Z,2.35
2023-02-27T13:08:04.221Z,1.80
2023-02-27T13:10:55.909Z,2.60
2023-02-27T13:13:46.491Z,1.77
2023-02-27T13:16:44.687Z,1.92
2023-02-27T13:19:28.690Z,2.38
2023-02-27T13:22:16.238Z,2.00
2023-02-27T13:24:51.898Z,1.20
2023-02-27T13:27:34.209Z,2.08
2023-02-27T13:30:04.041Z,1.88
2023-02-27T13:33:04.351Z,1.95
2023-02-27T13:35:56.120Z,2.10
2023-02-27T13:38:43.853Z,1.58
2023-02-27T13:41:28.951Z,1.90
2023-02-27T13:44:18.589Z,2.20
2023-02-27T13:46:45.717Z,1.73
2023-02-27T13:49:28.210Z,2.40
2023-02-27T13:51:58.687Z,2.20
2023-02-27T13:54:34.584Z,2.63
2023-02-27T13:57:18.330Z,2.33
2023-02-27T13:59:56.844Z,2.08
2023-02-27T14:02:31.088Z,2.72
2023-02-27T14:05:03.231Z,2.22
2023-02-27T14:07:47.464Z,2.25
2023-02-27T14:10:23.982Z,2.13
2023-02-27T14:12:51.598Z,2.28
2023-02-27T14:15:18.378Z,2.83
2023-02-27T14:17:49.620Z,2.03
2023-02-27T14:20:19.426Z,2.38
2023-02-27T14:23:11.518Z,2.45
2023-02-27T14:25:40.368Z,2.08
2023-02-27T14:28:25.417Z,2.42
2023-02-27T14:30:58.590Z,2.47
2023-02-27T14:33:40.081Z,2.05
2023-02-27T14:36:19.093Z,2.50
2023-02-27T14:38:46.453Z,2.00
2023-02-27T14:41:34.913Z,2.10
2023-02-27T14:44:02.447Z,3.08
2023-02-27T14:46:36.506Z,2.17
2023-02-27T14:49:06.751Z,3.28
2023-02-27T14:51:37.890Z,2.90
2023-02-27T14:54:12.165Z,2.75
2023-02-27T14:56:39.527Z,3.08
2023-02-27T14:59:26.122Z,2.65
2023-02-27T15:01:55.723Z,3.22
2023-02-27T15:04:25.964Z,4.03
2023-02-27T15:06:55.286Z,3.15
2023-02-27T15:09:25.628Z,2.88
2023-02-27T15:12:03.521Z,2.60
2023-02-27T15:14:36.963Z,2.55
2023-02-27T15:17:04.541Z,2.25
2023-02-27T15:19:32.030Z,2.40
2023-02-27T15:22:04.764Z,2.83
2023-02-27T15:24:50.129Z,2.85
2023-02-27T15:27:28.136Z,2.33
2023-02-27T15:30:00.357Z,2.05
2023-02-27T15:32:35.629Z,1.92
2023-02-27T15:35:34.362Z,2.33
2023-02-27T15:38:02.618Z,2.13
2023-02-27T15:40:33.789Z,2.03
2023-02-27T15:43:01.530Z,2.15
2023-02-27T15:45:32.525Z,2.10
2023-02-27T15:47:59.631Z,2.10
2023-02-27T15:50:31.443Z,2.28
2023-02-27T15:53:13.900Z,1.67
2023-02-27T15:58:31.754Z,2.13
2023-02-27T16:01:22.908Z,2.03
2023-02-27T16:03:55.109Z,2.40
2023-02-27T16:06:38.360Z,2.05
2023-02-27T16:09:17.760Z,2.47
2023-02-27T16:11:44.524Z,2.45
2023-02-27T16:14:44.243Z,2.20
2023-02-27T16:17:28.418Z,2.13
2023-02-27T16:19:56.776Z,1.90
2023-02-27T16:22:24.615Z,2.97
2023-02-27T16:24:52.287Z,2.03
2023-02-27T16:30:02.558Z,1.60
2023-02-27T16:32:36.176Z,1.80
2023-02-27T16:35:27.698Z,1.75
2023-02-27T16:38:00.984Z,2.05
2023-02-27T16:40:28.497Z,1.80
2023-02-27T16:42:56.037Z,1.80
2023-02-27T16:45:27.848Z,1.80
2023-02-27T16:47:59.280Z,2.00
2023-02-27T16:50:33.639Z,1.73
2023-02-27T16:53:00.463Z,1.67
2023-02-27T16:55:28.751Z,2.13
2023-02-27T16:57:55.985Z,1.73
2023-02-27T17:00:22.982Z,2.08
2023-02-27T17:02:50.212Z,2.85
2023-02-27T17:05:18.550Z,1.90
2023-02-27T17:07:45.303Z,2.05
2023-02-27T17:10:16.305Z,1.73
2023-02-27T17:12:44.139Z,2.22
2023-02-27T17:15:11.334Z,1.67
2023-02-27T17:17:38.110Z,1.50
2023-02-27T17:20:07.310Z,1.77
2023-02-27T17:22:39.514Z,1.80
2023-02-27T17:27:33.476Z,1.88
2023-02-27T17:30:00.224Z,2.13
2023-02-27T17:32:27.041Z,2.92
2023-02-27T17:34:55.439Z,4.55
2023-02-27T17:37:22.663Z,3.20
2023-02-27T17:39:49.556Z,3.08
2023-02-27T17:42:19.440Z,2.42
2023-02-27T17:44:46.556Z,2.85
2023-02-27T17:47:14.411Z,2.20
2023-02-27T17:49:41.154Z,3.90
2023-02-27T17:52:08.087Z,3.15
2023-02-27T17:54:36.119Z,4.40
2023-02-27T17:57:04.838Z,2.83
2023-02-27T17:59:31.773Z,2.78
2023-02-27T18:01:59.245Z,2.90
2023-02-27T18:04:26.258Z,3.40
2023-02-27T18:06:53.409Z,2.80
2023-02-27T18:09:20.248Z,2.60
2023-02-27T18:11:47.093Z,3.38
2023-02-27T18:14:13.961Z,3.70
2023-02-27T18:16:41.388Z,3.10
2023-02-27T18:19:08.588Z,3.08
2023-02-27T18:21:35.804Z,2.78
2023-02-27T18:24:02.624Z,3.30
2023-02-27T18:26:31.439Z,3.10
2023-02-27T18:29:07.387Z,2.85
2023-02-27T18:31:37.476Z,2.88
2023-02-27T18:34:04.504Z,3.30
2023-02-27T18:36:32.270Z,3.03
2023-02-27T18:38:59.459Z,2.58
2023-02-27T18:41:26.865Z,2.70
2023-02-27T18:43:53.849Z,3.17
2023-02-27T18:46:20.796Z,3.55
2023-02-27T18:48:47.606Z,3.20
2023-02-27T18:51:15.567Z,3.10
2023-02-27T18:53:44.550Z,2.80
2023-02-27T18:56:12.121Z,3.05
2023-02-27T18:58:39.435Z,3.03
2023-02-27T19:01:07.471Z,2.88
2023-02-27T19:03:35.864Z,3.63
2023-02-27T19:06:02.774Z,3.15
2023-02-27T19:08:29.641Z,3.95
2023-02-27T19:10:57.505Z,4.35
2023-02-27T19:13:25.530Z,3.58
2023-02-27T19:15:53.426Z,3.58
2023-02-27T19:18:20.528Z,3.28
2023-02-27T19:20:47.695Z,2.88
2023-02-27T19:23:14.459Z,3.75
2023-02-27T19:25:42.056Z,3.72
2023-02-27T19:28:11.884Z,2.97
2023-02-27T19:30:39.793Z,3.53
2023-02-27T19:33:06.979Z,2.90
2023-02-27T19:35:33.771Z,3.38
2023-02-27T19:38:00.521Z,3.47
2023-02-27T19:40:28.630Z,4.82
2023-02-27T19:42:55.697Z,3.70
2023-02-27T19:45:23.368Z,3.78
2023-02-27T19:47:50.168Z,3.58
2023-02-27T19:50:17.430Z,3.25
2023-02-27T19:52:44.179Z,3.75
2023-02-27T19:55:11.322Z,3.80
2023-02-27T19:57:38.244Z,3.70
2023-02-27T20:00:07.124Z,4.20
2023-02-27T20:02:33.935Z,3.40
2023-02-27T20:05:02.606Z,3.45
2023-02-27T20:07:30.384Z,4.15
2023-02-27T20:09:57.172Z,4.35
2023-02-27T20:12:24.119Z,4.05
2023-02-27T20:14:50.940Z,3.92
2023-02-27T20:17:18.105Z,3.72
2023-02-27T20:19:44.816Z,3.25
2023-02-27T20:22:13.602Z,3.42
2023-02-27T20:24:40.407Z,3.28
2023-02-27T20:27:07.390Z,3.25
2023-02-27T20:29:34.165Z,4.25
2023-02-27T20:32:01.152Z,3.97
2023-02-27T20:34:28.536Z,2.22
2023-02-27T20:36:56.343Z,3.33
2023-02-27T20:39:23.585Z,2.63
2023-02-27T20:41:50.429Z,3.33
2023-02-27T20:44:17.260Z,2.92
2023-02-27T20:46:44.725Z,3.13
2023-02-27T20:49:15.533Z,2.90
2023-02-27T20:51:42.730Z,3.20
2023-02-27T20:54:13.574Z,2.92
2023-02-27T20:56:41.548Z,2.92
2023-02-27T20:59:19.032Z,2.60
2023-02-27T21:01:52.895Z,3.70
2023-02-27T21:04:26.226Z,2.85
2023-02-27T21:06:54.660Z,2.63
2023-02-27T21:09:22.274Z,2.75
2023-02-27T21:11:49.031Z,2.80
2023-02-27T21:14:15.748Z,1.98
2023-02-27T21:16:42.520Z,2.17
2023-02-27T21:19:09.339Z,3.00
2023-02-27T21:21:36.921Z,3.10
2023-02-27T21:24:05.644Z,4.78
2023-02-27T21:26:36.424Z,4.72
2023-02-27T21:29:10.015Z,3.30
2023-02-27T21:31:38.731Z,1.90
2023-02-27T21:34:08.141Z,2.20
2023-02-27T21:36:37.817Z,2.13
2023-02-27T21:39:06.971Z,2.13
2023-02-27T21:41:34.811Z,2.00
2023-02-27T21:44:03.478Z,1.88
2023-02-27T21:46:30.709Z,2.17
2023-02-27T21:48:58.004Z,2.10
2023-02-27T21:51:38.716Z,2.35
2023-02-27T21:54:07.313Z,1.95
2023-02-27T21:56:34.089Z,3.35
2023-02-27T21:59:01.936Z,2.38
2023-02-27T22:01:29.794Z,2.25
2023-02-27T22:03:57.751Z,2.05
2023-02-27T22:06:26.880Z,1.90
2023-02-27T22:08:58.667Z,2.15
2023-02-27T22:11:27.466Z,2.75
2023-02-27T22:13:54.439Z,1.80
2023-02-27T22:16:21.727Z,2.03
2023-02-27T22:18:49.188Z,2.10
2023-02-27T22:21:20.578Z,2.60
2023-02-27T22:23:47.608Z,2.40
2023-02-27T22:28:42.389Z,2.42
2023-02-27T22:31:31.290Z,2.30
2023-02-27T22:34:05.065Z,1.92
2023-02-27T22:36:33.688Z,2.30
2023-02-27T22:39:01.652Z,1.77
2023-02-27T22:41:31.317Z,3.00
2023-02-27T22:44:00.319Z,2.10
2023-02-27T22:46:32.715Z,2.00
2023-02-27T22:49:03.093Z,1.67
2023-02-27T22:51:30.533Z,2.58
2023-02-27T22:54:00.151Z,2.00
2023-02-27T22:56:27.144Z,2.00
2023-02-27T22:58:54.141Z,2.60
2023-02-27T23:01:26.805Z,1.65
2023-02-27T23:03:56.273Z,2.05
2023-02-27T23:06:25.721Z,1.83
2023-02-27T23:08:53.253Z,1.60
2023-02-27T23:11:20.864Z,2.60
2023-02-27T23:13:48.140Z,1.90
2023-02-27T23:16:15.589Z,2.78
2023-02-27T23:18:46.130Z,1.65
2023-02-27T23:21:14.725Z,2.40
2023-02-27T23:23:41.981Z,2.40
2023-02-27T23:26:09.097Z,2.03
2023-02-27T23:28:36.888Z,2.20
2023-02-27T23:31:05.815Z,2.10
2023-02-27T23:33:33.551Z,1.80
2023-02-27T23:36:03.888Z,2.20
2023-02-27T23:38:30.929Z,2.97
2023-02-27T23:40:58.026Z,1.77
2023-02-27T23:43:24.866Z,2.30
2023-02-27T23:45:51.704Z,2.83
2023-02-27T23:48:21.871Z,2.03
2023-02-27T23:50:48.803Z,1.90
2023-02-27T23:53:15.637Z,2.22
2023-02-27T23:55:43.718Z,2.10
2023-02-27T23:58:11.211Z,2.65
